sensor_id;sensor_type;location;lat;lon;timestamp;temperature;humidity
12817;DHT22;6473;51.552;6.716;2023-09-07T00:00:28;19.20;99.90
12817;DHT22;6473;51.552;6.716;2023-09-07T00:02:56;20.40;99.90
12817;DHT22;6473;51.552;6.716;2023-09-07T00:05:23;19.30;99.90
12817;DHT22;6473;51.552;6.716;2023-09-07T00:07:50;19.30;99.90
12817;DHT22;6473;51.552;6.716;2023-09-07T00:10:17;19.30;99.90
12817;DHT22;6473;51.552;6.716;2023-09-07T00:12:44;19.20;99.90
12817;DHT22;6473;51.552;6.716;2023-09-07T00:15:11;19.10;99.90
12817;DHT22;6473;51.552;6.716;2023-09-07T00:17:38;19.00;99.90
12817;DHT22;6473;51.552;6.716;2023-09-07T00:20:07;19.00;99.90
12817;DHT22;6473;51.552;6.716;2023-09-07T00:22:37;19.10;99.90
12817;DHT22;6473;51.552;6.716;2023-09-07T00:25:04;19.00;99.90
12817;DHT22;6473;51.552;6.716;2023-09-07T00:27:32;18.80;99.90
12817;DHT22;6473;51.552;6.716;2023-09-07T00:29:59;18.80;99.90
12817;DHT22;6473;51.552;6.716;2023-09-07T00:32:26;18.70;99.90
12817;DHT22;6473;51.552;6.716;2023-09-07T00:34:53;20.30;99.90
12817;DHT22;6473;51.552;6.716;2023-09-07T00:37:21;20.00;99.90
12817;DHT22;6473;51.552;6.716;2023-09-07T00:39:48;18.60;99.90
12817;DHT22;6473;51.552;6.716;2023-09-07T00:42:15;18.60;99.90
12817;DHT22;6473;51.552;6.716;2023-09-07T00:44:42;19.10;99.90
12817;DHT22;6473;51.552;6.716;2023-09-07T00:47:10;18.80;99.90
12817;DHT22;6473;51.552;6.716;2023-09-07T00:49:37;18.70;99.90
12817;DHT22;6473;51.552;6.716;2023-09-07T00:52:05;21.20;99.90
12817;DHT22;6473;51.552;6.716;2023-09-07T00:54:33;18.50;99.90
12817;DHT22;6473;51.552;6.716;2023-09-07T00:57:01;18.50;99.90
12817;DHT22;6473;51.552;6.716;2023-09-07T00:59:28;18.50;99.90
12817;DHT22;6473;51.552;6.716;2023-09-07T01:01:55;18.40;99.90
12817;DHT22;6473;51.552;6.716;2023-09-07T01:04:22;18.50;99.90
12817;DHT22;6473;51.552;6.716;2023-09-07T01:06:52;18.40;99.90
12817;DHT22;6473;51.552;6.716;2023-09-07T01:09:23;20.30;99.90
12817;DHT22;6473;51.552;6.716;2023-09-07T01:11:51;18.20;99.90
12817;DHT22;6473;51.552;6.716;2023-09-07T01:14:18;18.10;99.90
12817;DHT22;6473;51.552;6.716;2023-09-07T01:16:46;18.00;99.90
12817;DHT22;6473;51.552;6.716;2023-09-07T01:19:13;18.00;99.90
12817;DHT22;6473;51.552;6.716;2023-09-07T01:21:41;18.00;99.90
12817;DHT22;6473;51.552;6.716;2023-09-07T01:24:09;18.00;99.90
12817;DHT22;6473;51.552;6.716;2023-09-07T01:26:37;20.80;99.90
12817;DHT22;6473;51.552;6.716;2023-09-07T01:29:06;18.00;99.90
12817;DHT22;6473;51.552;6.716;2023-09-07T01:31:35;17.90;99.90
12817;DHT22;6473;51.552;6.716;2023-09-07T01:34:03;17.90;99.90
12817;DHT22;6473;51.552;6.716;2023-09-07T01:36:31;17.80;99.90
12817;DHT22;6473;51.552;6.716;2023-09-07T01:39:02;17.90;99.90
12817;DHT22;6473;51.552;6.716;2023-09-07T01:41:29;17.90;99.90
12817;DHT22;6473;51.552;6.716;2023-09-07T01:43:56;17.90;99.90
12817;DHT22;6473;51.552;6.716;2023-09-07T01:46:23;17.90;99.90
12817;DHT22;6473;51.552;6.716;2023-09-07T01:48:50;18.00;99.90
12817;DHT22;6473;51.552;6.716;2023-09-07T01:51:17;19.30;99.90
12817;DHT22;6473;51.552;6.716;2023-09-07T01:53:46;18.00;99.90
12817;DHT22;6473;51.552;6.716;2023-09-07T01:56:15;19.10;99.90
12817;DHT22;6473;51.552;6.716;2023-09-07T01:58:42;18.00;99.90
12817;DHT22;6473;51.552;6.716;2023-09-07T02:01:20;19.70;99.90
12817;DHT22;6473;51.552;6.716;2023-09-07T02:03:47;17.90;99.90
12817;DHT22;6473;51.552;6.716;2023-09-07T02:06:14;17.90;99.90
12817;DHT22;6473;51.552;6.716;2023-09-07T02:08:42;17.70;99.90
12817;DHT22;6473;51.552;6.716;2023-09-07T02:11:09;17.80;99.90
12817;DHT22;6473;51.552;6.716;2023-09-07T02:13:41;17.80;99.90
12817;DHT22;6473;51.552;6.716;2023-09-07T02:16:08;17.80;99.90
12817;DHT22;6473;51.552;6.716;2023-09-07T02:18:36;17.70;99.90
12817;DHT22;6473;51.552;6.716;2023-09-07T02:21:03;17.60;99.90
12817;DHT22;6473;51.552;6.716;2023-09-07T02:23:31;17.60;99.90
12817;DHT22;6473;51.552;6.716;2023-09-07T02:25:58;17.60;99.90
12817;DHT22;6473;51.552;6.716;2023-09-07T02:28:25;17.60;99.90
12817;DHT22;6473;51.552;6.716;2023-09-07T02:30:54;17.60;99.90
12817;DHT22;6473;51.552;6.716;2023-09-07T02:33:21;17.60;99.90
12817;DHT22;6473;51.552;6.716;2023-09-07T02:35:48;17.60;99.90
12817;DHT22;6473;51.552;6.716;2023-09-07T02:38:16;17.40;99.90
12817;DHT22;6473;51.552;6.716;2023-09-07T02:40:43;17.30;99.90
12817;DHT22;6473;51.552;6.716;2023-09-07T02:43:11;17.30;99.90
12817;DHT22;6473;51.552;6.716;2023-09-07T02:45:38;18.00;99.90
12817;DHT22;6473;51.552;6.716;2023-09-07T02:48:07;17.30;99.90
12817;DHT22;6473;51.552;6.716;2023-09-07T02:50:35;17.30;99.90
12817;DHT22;6473;51.552;6.716;2023-09-07T02:53:02;19.00;99.90
12817;DHT22;6473;51.552;6.716;2023-09-07T02:55:30;17.20;99.90
12817;DHT22;6473;51.552;6.716;2023-09-07T02:57:57;17.20;99.90
12817;DHT22;6473;51.552;6.716;2023-09-07T03:00:25;17.10;99.90
12817;DHT22;6473;51.552;6.716;2023-09-07T03:02:52;17.00;99.90
12817;DHT22;6473;51.552;6.716;2023-09-07T03:05:21;17.00;99.90
12817;DHT22;6473;51.552;6.716;2023-09-07T03:07:48;17.10;99.90
12817;DHT22;6473;51.552;6.716;2023-09-07T03:10:17;17.20;99.90
12817;DHT22;6473;51.552;6.716;2023-09-07T03:12:44;17.30;99.90
12817;DHT22;6473;51.552;6.716;2023-09-07T03:15:11;17.20;99.90
12817;DHT22;6473;51.552;6.716;2023-09-07T03:17:40;17.10;99.90
12817;DHT22;6473;51.552;6.716;2023-09-07T03:20:08;17.00;99.90
12817;DHT22;6473;51.552;6.716;2023-09-07T03:22:42;17.00;99.90
12817;DHT22;6473;51.552;6.716;2023-09-07T03:25:10;17.00;99.90
12817;DHT22;6473;51.552;6.716;2023-09-07T03:27:38;17.00;99.90
12817;DHT22;6473;51.552;6.716;2023-09-07T03:30:08;18.40;99.90
12817;DHT22;6473;51.552;6.716;2023-09-07T03:32:35;16.90;99.90
12817;DHT22;6473;51.552;6.716;2023-09-07T03:35:04;18.00;99.90
12817;DHT22;6473;51.552;6.716;2023-09-07T03:37:32;16.80;99.90
12817;DHT22;6473;51.552;6.716;2023-09-07T03:40:00;16.90;99.90
12817;DHT22;6473;51.552;6.716;2023-09-07T03:42:31;16.90;99.90
12817;DHT22;6473;51.552;6.716;2023-09-07T03:44:58;17.40;99.90
12817;DHT22;6473;51.552;6.716;2023-09-07T03:47:25;16.90;99.90
12817;DHT22;6473;51.552;6.716;2023-09-07T03:49:55;16.90;99.90
12817;DHT22;6473;51.552;6.716;2023-09-07T03:52:22;16.90;99.90
12817;DHT22;6473;51.552;6.716;2023-09-07T03:54:50;17.00;99.90
12817;DHT22;6473;51.552;6.716;2023-09-07T03:57:19;16.90;99.90
12817;DHT22;6473;51.552;6.716;2023-09-07T03:59:47;16.80;99.90
12817;DHT22;6473;51.552;6.716;2023-09-07T04:02:14;16.90;99.90
12817;DHT22;6473;51.552;6.716;2023-09-07T04:04:41;19.50;99.90
12817;DHT22;6473;51.552;6.716;2023-09-07T04:07:08;16.80;99.90
12817;DHT22;6473;51.552;6.716;2023-09-07T04:09:35;16.80;99.90
12817;DHT22;6473;51.552;6.716;2023-09-07T04:12:02;16.80;99.90
12817;DHT22;6473;51.552;6.716;2023-09-07T04:14:31;16.80;99.90
12817;DHT22;6473;51.552;6.716;2023-09-07T04:16:58;16.70;99.90
12817;DHT22;6473;51.552;6.716;2023-09-07T04:19:24;16.70;99.90
12817;DHT22;6473;51.552;6.716;2023-09-07T04:21:51;16.60;99.90
12817;DHT22;6473;51.552;6.716;2023-09-07T04:24:18;16.60;99.90
12817;DHT22;6473;51.552;6.716;2023-09-07T04:26:47;16.60;99.90
12817;DHT22;6473;51.552;6.716;2023-09-07T04:29:14;16.60;99.90
12817;DHT22;6473;51.552;6.716;2023-09-07T04:31:42;16.40;99.90
12817;DHT22;6473;51.552;6.716;2023-09-07T04:34:09;16.40;99.90
12817;DHT22;6473;51.552;6.716;2023-09-07T04:36:37;16.40;99.90
12817;DHT22;6473;51.552;6.716;2023-09-07T04:39:04;16.40;99.90
12817;DHT22;6473;51.552;6.716;2023-09-07T04:41:31;16.40;99.90
12817;DHT22;6473;51.552;6.716;2023-09-07T04:43:58;18.30;99.90
12817;DHT22;6473;51.552;6.716;2023-09-07T04:46:25;16.30;99.90
12817;DHT22;6473;51.552;6.716;2023-09-07T04:48:53;16.30;99.90
12817;DHT22;6473;51.552;6.716;2023-09-07T04:51:21;18.20;99.90
12817;DHT22;6473;51.552;6.716;2023-09-07T04:53:49;16.60;99.90
12817;DHT22;6473;51.552;6.716;2023-09-07T04:56:16;16.60;99.90
12817;DHT22;6473;51.552;6.716;2023-09-07T04:58:43;16.50;99.90
12817;DHT22;6473;51.552;6.716;2023-09-07T05:01:11;16.50;99.90
12817;DHT22;6473;51.552;6.716;2023-09-07T05:03:40;16.40;99.90
12817;DHT22;6473;51.552;6.716;2023-09-07T05:06:10;16.40;99.90
12817;DHT22;6473;51.552;6.716;2023-09-07T05:08:37;16.30;99.90
12817;DHT22;6473;51.552;6.716;2023-09-07T05:11:05;16.40;99.90
12817;DHT22;6473;51.552;6.716;2023-09-07T05:13:32;16.30;99.90
12817;DHT22;6473;51.552;6.716;2023-09-07T05:16:01;16.20;99.90
12817;DHT22;6473;51.552;6.716;2023-09-07T05:18:28;16.20;99.90
12817;DHT22;6473;51.552;6.716;2023-09-07T05:20:56;16.20;99.90
12817;DHT22;6473;51.552;6.716;2023-09-07T05:23:24;16.20;99.90
12817;DHT22;6473;51.552;6.716;2023-09-07T05:25:53;16.40;99.90
12817;DHT22;6473;51.552;6.716;2023-09-07T05:28:23;16.30;99.90
12817;DHT22;6473;51.552;6.716;2023-09-07T05:30:52;16.30;99.90
12817;DHT22;6473;51.552;6.716;2023-09-07T05:33:21;16.40;99.90
12817;DHT22;6473;51.552;6.716;2023-09-07T05:35:48;18.20;99.90
12817;DHT22;6473;51.552;6.716;2023-09-07T05:38:15;16.50;99.90
12817;DHT22;6473;51.552;6.716;2023-09-07T05:40:45;16.90;99.90
12817;DHT22;6473;51.552;6.716;2023-09-07T05:43:16;17.20;99.90
12817;DHT22;6473;51.552;6.716;2023-09-07T05:45:43;17.70;99.90
12817;DHT22;6473;51.552;6.716;2023-09-07T05:48:11;18.20;99.90
12817;DHT22;6473;51.552;6.716;2023-09-07T05:50:38;18.70;99.90
12817;DHT22;6473;51.552;6.716;2023-09-07T05:53:05;19.40;99.90
12817;DHT22;6473;51.552;6.716;2023-09-07T05:55:33;19.70;99.90
12817;DHT22;6473;51.552;6.716;2023-09-07T05:58:04;22.00;99.90
12817;DHT22;6473;51.552;6.716;2023-09-07T06:00:35;20.90;99.90
12817;DHT22;6473;51.552;6.716;2023-09-07T06:03:05;21.20;99.40
12817;DHT22;6473;51.552;6.716;2023-09-07T06:05:33;21.70;96.50
12817;DHT22;6473;51.552;6.716;2023-09-07T06:08:00;22.30;90.40
12817;DHT22;6473;51.552;6.716;2023-09-07T06:10:28;22.80;80.30
12817;DHT22;6473;51.552;6.716;2023-09-07T06:12:55;23.10;67.50
12817;DHT22;6473;51.552;6.716;2023-09-07T06:15:24;23.30;58.10
12817;DHT22;6473;51.552;6.716;2023-09-07T06:17:51;23.60;50.60
12817;DHT22;6473;51.552;6.716;2023-09-07T06:20:18;24.00;45.80
12817;DHT22;6473;51.552;6.716;2023-09-07T06:22:45;24.40;40.60
12817;DHT22;6473;51.552;6.716;2023-09-07T06:25:13;24.70;28.50
12817;DHT22;6473;51.552;6.716;2023-09-07T06:27:40;24.40;21.20
12817;DHT22;6473;51.552;6.716;2023-09-07T06:30:08;25.10;18.00
12817;DHT22;6473;51.552;6.716;2023-09-07T06:32:38;25.30;10.40
12817;DHT22;6473;51.552;6.716;2023-09-07T06:35:07;25.10;13.00
12817;DHT22;6473;51.552;6.716;2023-09-07T06:37:35;25.20;11.20
12817;DHT22;6473;51.552;6.716;2023-09-07T06:40:07;25.20;6.80
12817;DHT22;6473;51.552;6.716;2023-09-07T06:42:35;25.90;1.00
12817;DHT22;6473;51.552;6.716;2023-09-07T06:45:07;26.10;1.00
12817;DHT22;6473;51.552;6.716;2023-09-07T06:47:35;26.20;1.00
12817;DHT22;6473;51.552;6.716;2023-09-07T06:50:05;26.60;1.00
12817;DHT22;6473;51.552;6.716;2023-09-07T06:52:32;27.10;1.00
12817;DHT22;6473;51.552;6.716;2023-09-07T06:54:59;27.40;1.00
12817;DHT22;6473;51.552;6.716;2023-09-07T06:57:26;27.80;1.00
12817;DHT22;6473;51.552;6.716;2023-09-07T06:59:53;28.00;1.00
12817;DHT22;6473;51.552;6.716;2023-09-07T07:02:20;28.00;1.00
12817;DHT22;6473;51.552;6.716;2023-09-07T07:04:47;28.20;1.00
12817;DHT22;6473;51.552;6.716;2023-09-07T07:07:17;28.40;1.00
12817;DHT22;6473;51.552;6.716;2023-09-07T07:09:44;28.70;1.00
12817;DHT22;6473;51.552;6.716;2023-09-07T07:12:10;28.90;1.00
12817;DHT22;6473;51.552;6.716;2023-09-07T07:14:38;29.00;1.00
12817;DHT22;6473;51.552;6.716;2023-09-07T07:17:05;29.50;1.00
12817;DHT22;6473;51.552;6.716;2023-09-07T07:19:34;29.70;1.00
12817;DHT22;6473;51.552;6.716;2023-09-07T07:22:02;30.00;1.00
12817;DHT22;6473;51.552;6.716;2023-09-07T07:24:32;30.00;1.00
12817;DHT22;6473;51.552;6.716;2023-09-07T07:26:59;30.30;1.00
12817;DHT22;6473;51.552;6.716;2023-09-07T07:29:28;30.50;1.00
12817;DHT22;6473;51.552;6.716;2023-09-07T07:31:55;30.70;1.00
12817;DHT22;6473;51.552;6.716;2023-09-07T07:34:22;30.30;1.00
12817;DHT22;6473;51.552;6.716;2023-09-07T07:36:49;30.40;1.00
12817;DHT22;6473;51.552;6.716;2023-09-07T07:39:16;30.40;1.00
12817;DHT22;6473;51.552;6.716;2023-09-07T07:41:44;30.50;1.00
12817;DHT22;6473;51.552;6.716;2023-09-07T07:44:11;30.60;1.00
12817;DHT22;6473;51.552;6.716;2023-09-07T07:46:39;30.40;1.00
12817;DHT22;6473;51.552;6.716;2023-09-07T07:49:06;30.50;1.00
12817;DHT22;6473;51.552;6.716;2023-09-07T07:51:33;30.60;1.00
12817;DHT22;6473;51.552;6.716;2023-09-07T07:54:00;31.00;1.00
12817;DHT22;6473;51.552;6.716;2023-09-07T07:56:27;31.40;1.00
12817;DHT22;6473;51.552;6.716;2023-09-07T07:58:56;31.50;1.00
12817;DHT22;6473;51.552;6.716;2023-09-07T08:01:23;31.00;1.00
12817;DHT22;6473;51.552;6.716;2023-09-07T08:03:53;30.20;1.00
12817;DHT22;6473;51.552;6.716;2023-09-07T08:06:21;30.80;1.00
12817;DHT22;6473;51.552;6.716;2023-09-07T08:08:47;29.90;1.00
12817;DHT22;6473;51.552;6.716;2023-09-07T08:11:15;30.00;1.00
12817;DHT22;6473;51.552;6.716;2023-09-07T08:13:43;29.90;1.00
12817;DHT22;6473;51.552;6.716;2023-09-07T08:16:14;30.40;1.00
12817;DHT22;6473;51.552;6.716;2023-09-07T08:18:41;31.10;1.00
12817;DHT22;6473;51.552;6.716;2023-09-07T08:21:09;31.80;1.00
12817;DHT22;6473;51.552;6.716;2023-09-07T08:23:38;32.50;1.00
12817;DHT22;6473;51.552;6.716;2023-09-07T08:26:05;32.80;1.00
12817;DHT22;6473;51.552;6.716;2023-09-07T08:28:36;32.50;1.00
12817;DHT22;6473;51.552;6.716;2023-09-07T08:31:02;32.30;1.00
12817;DHT22;6473;51.552;6.716;2023-09-07T08:33:31;32.60;1.00
12817;DHT22;6473;51.552;6.716;2023-09-07T08:36:06;32.80;1.00
12817;DHT22;6473;51.552;6.716;2023-09-07T08:38:34;32.70;1.00
12817;DHT22;6473;51.552;6.716;2023-09-07T08:41:02;32.30;1.00
12817;DHT22;6473;51.552;6.716;2023-09-07T08:43:33;31.60;1.00
12817;DHT22;6473;51.552;6.716;2023-09-07T08:46:05;32.30;1.00
12817;DHT22;6473;51.552;6.716;2023-09-07T08:48:37;32.60;1.00
12817;DHT22;6473;51.552;6.716;2023-09-07T08:51:05;32.70;1.00
12817;DHT22;6473;51.552;6.716;2023-09-07T08:53:33;32.60;1.00
12817;DHT22;6473;51.552;6.716;2023-09-07T08:56:01;32.50;1.00
12817;DHT22;6473;51.552;6.716;2023-09-07T08:58:28;32.20;1.00
12817;DHT22;6473;51.552;6.716;2023-09-07T09:00:57;32.30;1.00
12817;DHT22;6473;51.552;6.716;2023-09-07T09:03:24;31.80;1.00
12817;DHT22;6473;51.552;6.716;2023-09-07T09:05:53;31.80;1.00
12817;DHT22;6473;51.552;6.716;2023-09-07T09:08:20;32.00;1.00
12817;DHT22;6473;51.552;6.716;2023-09-07T09:10:58;32.20;1.00
12817;DHT22;6473;51.552;6.716;2023-09-07T09:13:29;34.00;1.00
12817;DHT22;6473;51.552;6.716;2023-09-07T09:15:56;32.50;1.00
12817;DHT22;6473;51.552;6.716;2023-09-07T09:18:25;33.00;1.00
12817;DHT22;6473;51.552;6.716;2023-09-07T09:20:54;33.20;1.00
12817;DHT22;6473;51.552;6.716;2023-09-07T09:23:21;32.70;1.00
12817;DHT22;6473;51.552;6.716;2023-09-07T09:25:48;32.10;1.00
12817;DHT22;6473;51.552;6.716;2023-09-07T09:28:15;32.00;1.00
12817;DHT22;6473;51.552;6.716;2023-09-07T09:30:42;31.80;1.00
12817;DHT22;6473;51.552;6.716;2023-09-07T09:33:10;32.00;1.00
12817;DHT22;6473;51.552;6.716;2023-09-07T09:35:37;32.20;1.00
12817;DHT22;6473;51.552;6.716;2023-09-07T09:38:06;32.60;1.00
12817;DHT22;6473;51.552;6.716;2023-09-07T09:40:33;32.30;1.00
12817;DHT22;6473;51.552;6.716;2023-09-07T09:43:02;31.70;1.00
12817;DHT22;6473;51.552;6.716;2023-09-07T09:45:29;31.80;1.00
12817;DHT22;6473;51.552;6.716;2023-09-07T09:47:58;31.70;1.00
12817;DHT22;6473;51.552;6.716;2023-09-07T09:50:26;31.90;1.00
12817;DHT22;6473;51.552;6.716;2023-09-07T09:52:53;29.30;1.00
12817;DHT22;6473;51.552;6.716;2023-09-07T09:55:22;32.00;1.00
12817;DHT22;6473;51.552;6.716;2023-09-07T09:57:49;31.90;1.00
12817;DHT22;6473;51.552;6.716;2023-09-07T10:00:16;31.80;1.00
12817;DHT22;6473;51.552;6.716;2023-09-07T10:02:59;31.30;1.00
12817;DHT22;6473;51.552;6.716;2023-09-07T10:05:28;31.20;1.00
12817;DHT22;6473;51.552;6.716;2023-09-07T10:08:01;31.80;1.00
12817;DHT22;6473;51.552;6.716;2023-09-07T10:10:34;32.00;1.00
12817;DHT22;6473;51.552;6.716;2023-09-07T10:13:02;31.50;1.00
12817;DHT22;6473;51.552;6.716;2023-09-07T10:15:31;31.20;1.00
12817;DHT22;6473;51.552;6.716;2023-09-07T10:18:09;31.10;1.00
12817;DHT22;6473;51.552;6.716;2023-09-07T10:20:54;32.10;1.00
12817;DHT22;6473;51.552;6.716;2023-09-07T10:23:22;32.00;1.00
12817;DHT22;6473;51.552;6.716;2023-09-07T10:25:52;32.20;1.00
12817;DHT22;6473;51.552;6.716;2023-09-07T10:28:20;32.20;1.00
12817;DHT22;6473;51.552;6.716;2023-09-07T10:30:58;32.70;1.00
12817;DHT22;6473;51.552;6.716;2023-09-07T10:33:25;32.10;1.00
12817;DHT22;6473;51.552;6.716;2023-09-07T10:35:52;32.40;1.00
12817;DHT22;6473;51.552;6.716;2023-09-07T10:38:19;32.10;1.00
12817;DHT22;6473;51.552;6.716;2023-09-07T10:40:48;31.50;1.00
12817;DHT22;6473;51.552;6.716;2023-09-07T10:43:16;31.70;1.00
12817;DHT22;6473;51.552;6.716;2023-09-07T10:45:46;31.80;1.00
12817;DHT22;6473;51.552;6.716;2023-09-07T10:48:14;32.20;1.00
12817;DHT22;6473;51.552;6.716;2023-09-07T10:50:44;31.80;1.00
12817;DHT22;6473;51.552;6.716;2023-09-07T10:53:12;31.50;1.00
12817;DHT22;6473;51.552;6.716;2023-09-07T10:55:40;31.10;1.00
12817;DHT22;6473;51.552;6.716;2023-09-07T10:58:09;31.30;1.00
12817;DHT22;6473;51.552;6.716;2023-09-07T11:00:37;31.30;1.00
12817;DHT22;6473;51.552;6.716;2023-09-07T11:03:08;31.10;1.00
12817;DHT22;6473;51.552;6.716;2023-09-07T11:05:37;31.20;1.00
12817;DHT22;6473;51.552;6.716;2023-09-07T11:08:06;31.10;1.00
12817;DHT22;6473;51.552;6.716;2023-09-07T11:10:34;31.10;1.00
12817;DHT22;6473;51.552;6.716;2023-09-07T11:13:02;31.20;1.00
12817;DHT22;6473;51.552;6.716;2023-09-07T11:15:29;31.50;1.00
12817;DHT22;6473;51.552;6.716;2023-09-07T11:17:58;31.40;1.00
12817;DHT22;6473;51.552;6.716;2023-09-07T11:20:24;31.40;1.00
12817;DHT22;6473;51.552;6.716;2023-09-07T11:22:51;31.40;1.00
12817;DHT22;6473;51.552;6.716;2023-09-07T11:25:19;31.30;1.00
12817;DHT22;6473;51.552;6.716;2023-09-07T11:27:46;31.10;1.00
12817;DHT22;6473;51.552;6.716;2023-09-07T11:30:13;31.50;1.00
12817;DHT22;6473;51.552;6.716;2023-09-07T11:32:39;31.60;1.00
12817;DHT22;6473;51.552;6.716;2023-09-07T11:35:10;31.60;1.00
12817;DHT22;6473;51.552;6.716;2023-09-07T11:37:36;31.80;1.00
12817;DHT22;6473;51.552;6.716;2023-09-07T11:40:04;31.80;1.00
12817;DHT22;6473;51.552;6.716;2023-09-07T11:42:36;31.70;1.00
12817;DHT22;6473;51.552;6.716;2023-09-07T11:45:06;31.30;1.00
12817;DHT22;6473;51.552;6.716;2023-09-07T11:47:35;31.60;1.00
12817;DHT22;6473;51.552;6.716;2023-09-07T11:50:03;31.80;1.00
12817;DHT22;6473;51.552;6.716;2023-09-07T11:52:32;31.60;1.00
12817;DHT22;6473;51.552;6.716;2023-09-07T11:54:59;31.40;1.00
12817;DHT22;6473;51.552;6.716;2023-09-07T11:57:25;31.40;1.00
12817;DHT22;6473;51.552;6.716;2023-09-07T11:59:52;31.60;1.00
12817;DHT22;6473;51.552;6.716;2023-09-07T12:02:19;31.70;1.00
12817;DHT22;6473;51.552;6.716;2023-09-07T12:04:46;31.90;1.00
12817;DHT22;6473;51.552;6.716;2023-09-07T12:07:13;32.00;1.00
12817;DHT22;6473;51.552;6.716;2023-09-07T12:09:42;32.00;1.00
12817;DHT22;6473;51.552;6.716;2023-09-07T12:12:09;31.80;1.00
12817;DHT22;6473;51.552;6.716;2023-09-07T12:14:37;31.80;1.00
12817;DHT22;6473;51.552;6.716;2023-09-07T12:17:04;31.70;1.00
12817;DHT22;6473;51.552;6.716;2023-09-07T12:19:31;31.70;1.00
12817;DHT22;6473;51.552;6.716;2023-09-07T12:21:58;31.80;1.00
12817;DHT22;6473;51.552;6.716;2023-09-07T12:24:25;31.80;1.00
12817;DHT22;6473;51.552;6.716;2023-09-07T12:26:54;32.00;1.00
12817;DHT22;6473;51.552;6.716;2023-09-07T12:29:21;32.10;1.00
12817;DHT22;6473;51.552;6.716;2023-09-07T12:31:48;32.20;1.00
12817;DHT22;6473;51.552;6.716;2023-09-07T12:34:14;32.30;1.00
12817;DHT22;6473;51.552;6.716;2023-09-07T12:36:41;32.30;1.00
12817;DHT22;6473;51.552;6.716;2023-09-07T12:39:08;32.30;1.00
12817;DHT22;6473;51.552;6.716;2023-09-07T12:41:38;32.10;1.00
12817;DHT22;6473;51.552;6.716;2023-09-07T12:44:06;32.00;1.00
12817;DHT22;6473;51.552;6.716;2023-09-07T12:46:33;32.30;1.00
12817;DHT22;6473;51.552;6.716;2023-09-07T12:49:01;32.30;1.00
12817;DHT22;6473;51.552;6.716;2023-09-07T12:51:27;32.20;1.00
12817;DHT22;6473;51.552;6.716;2023-09-07T12:53:54;32.10;1.00
12817;DHT22;6473;51.552;6.716;2023-09-07T12:56:21;32.50;1.00
12817;DHT22;6473;51.552;6.716;2023-09-07T12:58:48;32.40;1.00
12817;DHT22;6473;51.552;6.716;2023-09-07T13:01:19;32.30;1.00
12817;DHT22;6473;51.552;6.716;2023-09-07T13:03:46;32.10;1.00
12817;DHT22;6473;51.552;6.716;2023-09-07T13:06:12;32.30;1.00
12817;DHT22;6473;51.552;6.716;2023-09-07T13:08:42;32.40;1.00
12817;DHT22;6473;51.552;6.716;2023-09-07T13:11:10;32.40;1.00
12817;DHT22;6473;51.552;6.716;2023-09-07T13:13:37;32.60;1.00
12817;DHT22;6473;51.552;6.716;2023-09-07T13:16:04;32.30;1.00
12817;DHT22;6473;51.552;6.716;2023-09-07T13:18:33;32.70;1.00
12817;DHT22;6473;51.552;6.716;2023-09-07T13:20:59;32.80;1.00
12817;DHT22;6473;51.552;6.716;2023-09-07T13:23:26;32.50;1.00
12817;DHT22;6473;51.552;6.716;2023-09-07T13:25:54;32.20;1.00
12817;DHT22;6473;51.552;6.716;2023-09-07T13:28:22;32.10;1.00
12817;DHT22;6473;51.552;6.716;2023-09-07T13:30:49;32.10;1.00
12817;DHT22;6473;51.552;6.716;2023-09-07T13:33:16;32.00;1.00
12817;DHT22;6473;51.552;6.716;2023-09-07T13:35:44;32.20;1.00
12817;DHT22;6473;51.552;6.716;2023-09-07T13:38:12;32.70;1.00
12817;DHT22;6473;51.552;6.716;2023-09-07T13:40:39;32.70;1.00
12817;DHT22;6473;51.552;6.716;2023-09-07T13:43:05;32.20;1.00
12817;DHT22;6473;51.552;6.716;2023-09-07T13:45:33;32.20;1.00
12817;DHT22;6473;51.552;6.716;2023-09-07T13:48:00;31.90;1.00
12817;DHT22;6473;51.552;6.716;2023-09-07T13:50:27;32.30;1.00
12817;DHT22;6473;51.552;6.716;2023-09-07T13:52:56;32.40;1.00
12817;DHT22;6473;51.552;6.716;2023-09-07T13:55:23;32.10;1.00
12817;DHT22;6473;51.552;6.716;2023-09-07T13:57:50;32.10;1.00
12817;DHT22;6473;51.552;6.716;2023-09-07T14:00:17;32.20;1.00
12817;DHT22;6473;51.552;6.716;2023-09-07T14:02:44;32.10;1.00
12817;DHT22;6473;51.552;6.716;2023-09-07T14:05:11;32.10;1.00
12817;DHT22;6473;51.552;6.716;2023-09-07T14:07:38;32.40;1.00
12817;DHT22;6473;51.552;6.716;2023-09-07T14:10:07;32.50;1.00
12817;DHT22;6473;51.552;6.716;2023-09-07T14:12:34;32.30;1.00
12817;DHT22;6473;51.552;6.716;2023-09-07T14:15:01;32.30;1.00
12817;DHT22;6473;51.552;6.716;2023-09-07T14:17:27;32.20;1.00
12817;DHT22;6473;51.552;6.716;2023-09-07T14:19:54;32.20;1.00
12817;DHT22;6473;51.552;6.716;2023-09-07T14:22:21;32.30;1.00
12817;DHT22;6473;51.552;6.716;2023-09-07T14:24:48;32.10;1.00
12817;DHT22;6473;51.552;6.716;2023-09-07T14:27:16;32.30;1.00
12817;DHT22;6473;51.552;6.716;2023-09-07T14:29:43;32.30;1.00
12817;DHT22;6473;51.552;6.716;2023-09-07T14:32:10;32.50;1.00
12817;DHT22;6473;51.552;6.716;2023-09-07T14:34:37;32.60;1.00
12817;DHT22;6473;51.552;6.716;2023-09-07T14:37:04;32.60;1.00
12817;DHT22;6473;51.552;6.716;2023-09-07T14:39:31;32.60;1.00
12817;DHT22;6473;51.552;6.716;2023-09-07T14:41:57;32.50;1.00
12817;DHT22;6473;51.552;6.716;2023-09-07T14:44:28;32.20;1.00
12817;DHT22;6473;51.552;6.716;2023-09-07T14:46:55;32.20;1.00
12817;DHT22;6473;51.552;6.716;2023-09-07T14:49:22;32.10;1.00
12817;DHT22;6473;51.552;6.716;2023-09-07T14:51:48;32.20;1.00
12817;DHT22;6473;51.552;6.716;2023-09-07T14:54:15;32.30;1.00
12817;DHT22;6473;51.552;6.716;2023-09-07T14:56:43;32.50;1.00
12817;DHT22;6473;51.552;6.716;2023-09-07T14:59:10;32.50;1.00
12817;DHT22;6473;51.552;6.716;2023-09-07T15:01:38;32.60;1.00
12817;DHT22;6473;51.552;6.716;2023-09-07T15:04:05;32.70;1.00
12817;DHT22;6473;51.552;6.716;2023-09-07T15:06:32;32.70;1.00
12817;DHT22;6473;51.552;6.716;2023-09-07T15:08:59;32.40;1.00
12817;DHT22;6473;51.552;6.716;2023-09-07T15:11:26;32.60;1.00
12817;DHT22;6473;51.552;6.716;2023-09-07T15:13:53;32.50;1.00
12817;DHT22;6473;51.552;6.716;2023-09-07T15:16:21;32.60;1.00
12817;DHT22;6473;51.552;6.716;2023-09-07T15:18:50;32.70;1.00
12817;DHT22;6473;51.552;6.716;2023-09-07T15:21:18;32.90;1.00
12817;DHT22;6473;51.552;6.716;2023-09-07T15:23:45;32.60;1.00
12817;DHT22;6473;51.552;6.716;2023-09-07T15:26:14;32.50;1.00
12817;DHT22;6473;51.552;6.716;2023-09-07T15:28:41;32.60;1.00
12817;DHT22;6473;51.552;6.716;2023-09-07T15:31:07;32.40;1.00
12817;DHT22;6473;51.552;6.716;2023-09-07T15:33:34;32.30;1.00
12817;DHT22;6473;51.552;6.716;2023-09-07T15:36:03;31.90;1.00
12817;DHT22;6473;51.552;6.716;2023-09-07T15:38:30;31.90;1.00
12817;DHT22;6473;51.552;6.716;2023-09-07T15:40:57;31.80;1.00
12817;DHT22;6473;51.552;6.716;2023-09-07T15:43:24;31.80;1.00
12817;DHT22;6473;51.552;6.716;2023-09-07T15:45:52;31.50;1.00
12817;DHT22;6473;51.552;6.716;2023-09-07T15:48:19;31.50;1.00
12817;DHT22;6473;51.552;6.716;2023-09-07T15:50:46;31.40;1.00
12817;DHT22;6473;51.552;6.716;2023-09-07T15:53:14;31.30;1.00
12817;DHT22;6473;51.552;6.716;2023-09-07T15:55:41;31.20;1.00
12817;DHT22;6473;51.552;6.716;2023-09-07T15:58:08;31.10;1.00